Time;durP1;ratioP1;P1;durP2;ratioP2;P2;SDS_P1;SDS_P2;PMS_P1;PMS_P2;Temp;Humidity;BMP_temperature;BMP_pressure;BME280_temperature;BME280_humidity;BME280_pressure;Samples;Min_cycle;Max_cycle;Signal;HPM_P1;HPM_P2
2023/04/10 00:02:45;;;;;;;5.85;2.05;;;;;;;0.44;34.09;97132.06;6283187;28;20056;-61
2023/04/10 00:05:49;;;;;;;5.05;2.47;;;;;;;0.42;34.55;97131.22;6291229;28;20123;-64
2023/04/10 00:08:50;;;;;;;3.80;2.60;;;;;;;0.39;34.16;97125.25;6287854;28;20055;-61
2023/04/10 00:11:52;;;;;;;4.88;2.28;;;;;;;0.34;34.42;97127.97;6290933;28;20044;-61
2023/04/10 00:14:56;;;;;;;5.90;2.70;;;;;;;0.24;35.03;97125.59;6288680;28;20074;-61
2023/04/10 00:18:02;;;;;;;7.00;2.45;;;;;;;0.18;34.56;97129.16;6288674;28;20607;-61
2023/04/10 00:21:05;;;;;;;5.07;2.20;;;;;;;0.16;34.78;97121.41;6285188;28;20048;-61
2023/04/10 00:24:06;;;;;;;4.22;2.13;;;;;;;0.25;34.12;97125.53;6290784;28;20047;-61
2023/04/10 00:27:08;;;;;;;4.35;2.20;;;;;;;0.33;33.93;97123.66;6288246;28;20041;-60
2023/04/10 00:30:09;;;;;;;4.18;2.17;;;;;;;0.38;33.84;97120.97;6290591;28;20036;-60
2023/04/10 00:33:11;;;;;;;5.95;2.25;;;;;;;0.40;34.04;97122.66;6289541;28;20033;-62
2023/04/10 00:36:12;;;;;;;5.35;2.50;;;;;;;0.37;34.00;97117.56;6290126;28;20085;-61
2023/04/10 00:39:16;;;;;;;3.83;2.00;;;;;;;0.47;33.38;97119.94;6289224;28;20072;-62
2023/04/10 00:42:23;;;;;;;4.25;2.22;;;;;;;0.63;32.35;97110.97;6293171;28;20036;-61
2023/04/10 00:45:27;;;;;;;4.82;2.50;;;;;;;0.58;32.88;97112.78;6293300;28;20051;-61
2023/04/10 00:48:29;;;;;;;2.35;1.98;;;;;;;0.49;32.77;97107.81;6291057;28;20041;-60
2023/04/10 00:51:33;;;;;;;3.90;2.10;;;;;;;0.43;33.11;97104.47;6289666;28;20541;-61
2023/04/10 00:54:35;;;;;;;;;;;;;;;0.42;32.71;97112.25;6284538;28;20037;-62
2023/04/10 00:57:44;;;;;;;4.57;2.22;;;;;;;0.35;33.40;97108.97;6288236;28;19924;-61
2023/04/10 01:00:46;;;;;;;5.47;2.50;;;;;;;0.34;33.27;97109.84;6288805;28;20136;-61
2023/04/10 01:03:48;;;;;;;4.65;2.53;;;;;;;0.41;33.55;97101.06;6293675;28;20410;-60
2023/04/10 01:07:13;;;;;;;6.10;2.58;;;;;;;0.43;32.68;97107.06;6291130;28;20549;-61
2023/04/10 01:10:48;;;;;;;3.40;2.10;;;;;;;0.31;33.01;97104.75;6285271;28;20139;-61
2023/04/10 01:14:01;;;;;;;4.95;2.58;;;;;;;0.26;33.68;97095.38;6253529;28;20048;-61
2023/04/10 01:17:10;;;;;;;5.13;2.67;;;;;;;0.17;33.35;97094.66;6292642;28;20270;-62
2023/04/10 01:20:18;;;;;;;7.50;3.30;;;;;;;0.22;33.39;97097.13;6292500;28;20040;-64
2023/04/10 01:23:31;;;;;;;5.55;2.90;;;;;;;0.18;33.56;97096.34;6287383;28;20048;-62
2023/04/10 01:26:46;;;;;;;4.82;3.05;;;;;;;0.19;33.70;97094.63;6286384;28;20044;-64
2023/04/10 01:29:54;;;;;;;6.65;3.25;;;;;;;0.20;33.17;97086.84;6293184;28;20059;-61
2023/04/10 01:33:00;;;;;;;5.35;2.90;;;;;;;0.17;33.05;97062.72;6291558;28;20052;-61
2023/04/10 01:36:06;;;;;;;4.88;3.13;;;;;;;0.52;32.44;97084.47;6291129;28;20053;-62
2023/04/10 01:39:11;;;;;;;7.82;3.00;;;;;;;0.60;32.44;97087.72;6286558;28;20040;-61
2023/04/10 01:42:15;;;;;;;12.05;3.70;;;;;;;0.57;32.38;97080.03;6289966;28;20041;-61
2023/04/10 01:45:20;;;;;;;9.07;3.38;;;;;;;0.57;32.47;97082.63;6289849;28;20051;-61
2023/04/10 01:48:22;;;;;;;11.45;3.38;;;;;;;0.58;32.75;97084.31;6292850;28;20059;-62
2023/04/10 01:51:26;;;;;;;7.40;3.78;;;;;;;0.54;33.52;97082.66;6290530;28;20041;-61
2023/04/10 01:54:30;;;;;;;7.78;3.40;;;;;;;0.54;32.85;97075.78;6293612;28;20170;-62
2023/04/10 01:57:31;;;;;;;9.00;3.38;;;;;;;0.50;33.37;97073.28;6286565;28;20053;-62
2023/04/10 02:00:42;;;;;;;8.18;3.58;;;;;;;0.52;33.19;97067.19;6291998;28;20043;-62
2023/04/10 02:03:46;;;;;;;8.07;3.55;;;;;;;0.60;33.87;97077.38;6294130;28;20452;-62
2023/04/10 02:07:03;;;;;;;4.15;2.55;;;;;;;0.67;33.21;97081.50;6287908;28;20036;-61
2023/04/10 02:10:12;;;;;;;4.07;2.30;;;;;;;0.81;32.55;97071.69;6292340;28;20528;-61
2023/04/10 02:13:19;;;;;;;5.68;2.83;;;;;;;0.86;32.62;97075.03;6290812;28;20045;-61
2023/04/10 02:16:22;;;;;;;5.18;2.75;;;;;;;0.96;32.44;97073.06;6290851;28;20049;-61
2023/04/10 02:19:27;;;;;;;6.88;3.40;;;;;;;1.14;31.99;97070.94;6293630;28;20052;-61
2023/04/10 02:22:29;;;;;;;5.47;3.10;;;;;;;1.18;31.78;97067.38;6289174;28;20123;-61
2023/04/10 02:25:32;;;;;;;5.53;3.40;;;;;;;1.24;31.95;97068.06;6292152;28;20047;-62
2023/04/10 02:28:36;;;;;;;9.80;3.28;;;;;;;1.28;31.89;97066.28;6289420;28;20044;-61
2023/04/10 02:31:39;;;;;;;7.80;3.45;;;;;;;1.29;31.43;97070.56;6286736;28;20052;-61
2023/04/10 02:34:42;;;;;;;8.75;3.72;;;;;;;1.33;31.73;97065.28;6287009;28;20051;-61
2023/04/10 02:37:47;;;;;;;7.05;3.40;;;;;;;1.37;32.21;97060.84;6288810;28;20521;-62
2023/04/10 02:40:51;;;;;;;10.52;4.00;;;;;;;1.51;32.09;97060.50;6290966;28;20047;-61
2023/04/10 02:43:52;;;;;;;12.10;3.80;;;;;;;1.56;31.50;97058.66;6289048;28;20040;-62
2023/04/10 02:46:56;;;;;;;10.35;3.50;;;;;;;1.62;31.68;97057.63;6292199;28;20524;-61
2023/04/10 02:49:57;;;;;;;11.40;3.88;;;;;;;1.75;31.71;97057.25;6290699;28;20032;-61
2023/04/10 02:53:01;;;;;;;14.82;4.43;;;;;;;1.92;31.70;97055.94;6287040;28;20127;-62
2023/04/10 02:56:06;;;;;;;6.80;3.17;;;;;;;2.10;31.18;97052.84;6288291;28;20104;-61
2023/04/10 02:59:12;;;;;;;10.15;3.63;;;;;;;2.24;31.00;97058.50;6288019;28;20512;-61
2023/04/10 03:02:13;;;;;;;5.93;3.10;;;;;;;2.41;30.54;97051.97;6290961;28;20048;-61
2023/04/10 03:05:14;;;;;;;8.10;3.53;;;;;;;2.50;30.96;97059.47;6284309;28;20055;-60
2023/04/10 03:08:21;;;;;;;6.40;3.10;;;;;;;2.61;31.45;97062.59;6291336;28;20040;-62
2023/04/10 03:11:24;;;;;;;10.18;3.20;;;;;;;2.73;30.58;97061.38;6287357;28;20128;-62
2023/04/10 03:14:28;;;;;;;12.30;3.40;;;;;;;2.83;31.10;97056.72;6288011;28;20048;-61
2023/04/10 03:17:29;;;;;;;9.23;3.92;;;;;;;2.89;30.88;97056.56;6288612;28;20541;-61
2023/04/10 03:20:32;;;;;;;10.73;3.58;;;;;;;3.00;31.21;97049.28;6286115;28;20053;-62
2023/04/10 03:23:33;;;;;;;12.05;3.67;;;;;;;3.18;31.49;97054.78;6290064;28;20048;-61
2023/04/10 03:26:37;;;;;;;;;;;;;;;3.29;30.61;97050.91;6287694;28;20048;-61
2023/04/10 03:29:41;;;;;;;9.27;3.78;;;;;;;3.32;30.94;97031.75;6287707;28;20399;-61
2023/04/10 03:32:42;;;;;;;6.15;3.35;;;;;;;3.54;30.78;97039.69;6289182;28;20044;-63
2023/04/10 03:35:45;;;;;;;13.50;4.13;;;;;;;3.68;30.57;97040.06;6291084;28;20047;-61
2023/04/10 03:38:46;;;;;;;6.75;3.95;;;;;;;3.81;30.90;97040.47;6290167;28;20044;-62
2023/04/10 03:41:47;;;;;;;8.50;4.07;;;;;;;3.92;30.99;97030.53;6283524;28;20037;-62
2023/04/10 03:44:51;;;;;;;8.13;3.45;;;;;;;4.08;30.96;97032.56;6283719;28;20048;-60
2023/04/10 03:47:55;;;;;;;11.75;4.43;;;;;;;4.16;30.75;97027.94;6290901;28;20052;-61
2023/04/10 03:50:56;;;;;;;13.75;4.28;;;;;;;4.39;30.70;97030.53;6289422;28;20498;-61
2023/04/10 03:53:58;;;;;;;10.32;4.00;;;;;;;4.64;30.57;97029.59;6286334;28;20076;-61
2023/04/10 03:57:05;;;;;;;9.82;4.70;;;;;;;4.80;30.48;97025.47;6287594;28;20044;-62
2023/04/10 04:00:07;;;;;;;9.45;4.18;;;;;;;4.99;29.75;97029.97;6287977;28;20040;-61
2023/04/10 04:03:08;;;;;;;6.18;3.75;;;;;;;5.15;29.36;97026.69;6291297;28;21024;-61
2023/04/10 04:06:10;;;;;;;13.20;4.57;;;;;;;5.37;28.49;97021.41;6295821;28;20521;-63
2023/04/10 04:09:11;;;;;;;11.15;4.90;;;;;;;5.60;28.21;97027.44;6295272;28;20045;-62
2023/04/10 04:12:12;;;;;;;6.53;3.30;;;;;;;5.86;27.35;97026.34;6293725;28;20041;-64
2023/04/10 04:15:17;;;;;;;6.70;3.50;;;;;;;6.04;26.73;97022.09;6292545;28;20056;-60
2023/04/10 04:18:20;;;;;;;9.98;4.32;;;;;;;6.11;26.64;97018.28;6296202;28;20047;-61
2023/04/10 04:21:24;;;;;;;7.13;3.70;;;;;;;6.00;26.53;96981.31;6295331;28;20678;-61
2023/04/10 04:24:25;;;;;;;;;;;;;;;6.38;26.63;97020.56;6291835;28;20769;-61
2023/04/10 04:27:28;;;;;;;10.75;4.45;;;;;;;6.45;25.97;97011.50;6288635;28;20305;-62
2023/04/10 04:30:29;;;;;;;7.13;4.78;;;;;;;6.62;25.61;97014.19;6293885;28;20040;-62
2023/04/10 04:33:33;;;;;;;5.55;3.90;;;;;;;6.89;25.15;97017.28;6293601;28;20429;-60
2023/04/10 04:36:34;;;;;;;8.05;3.80;;;;;;;7.00;25.00;97015.94;6294912;28;20051;-61
2023/04/10 04:39:35;;;;;;;6.13;3.70;;;;;;;7.10;25.24;97018.00;6288507;28;20669;-61
2023/04/10 04:42:37;;;;;;;6.60;4.47;;;;;;;7.26;24.44;97014.66;6289013;28;20052;-62
2023/04/10 04:45:40;;;;;;;7.45;3.60;;;;;;;7.35;24.51;97014.19;6290615;28;20048;-61
2023/04/10 04:48:41;;;;;;;5.30;3.58;;;;;;;7.46;24.01;97004.03;6289094;28;20546;-60
2023/04/10 04:51:43;;;;;;;7.38;4.22;;;;;;;7.63;23.92;97009.25;6292477;28;20036;-60
2023/04/10 04:54:44;;;;;;;9.13;3.53;;;;;;;7.74;23.59;97010.50;6294018;28;20040;-61
2023/04/10 04:57:49;;;;;;;10.27;3.83;;;;;;;7.96;22.82;97003.22;6292992;28;20048;-60
2023/04/10 05:00:53;;;;;;;6.80;3.90;;;;;;;8.13;22.62;97011.97;6292806;28;20127;-62
2023/04/10 05:03:55;;;;;;;6.40;4.57;;;;;;;8.25;21.88;97011.31;6283643;28;20045;-61
2023/04/10 05:07:01;;;;;;;6.15;4.13;;;;;;;8.45;21.37;97012.88;6294692;28;20060;-61
2023/04/10 05:10:05;;;;;;;6.28;3.80;;;;;;;8.56;21.48;97007.91;6294061;28;20194;-61
2023/04/10 05:13:06;;;;;;;12.10;3.33;;;;;;;8.71;21.31;97014.09;6290752;28;20036;-60
2023/04/10 05:16:08;;;;;;;5.28;3.03;;;;;;;8.80;20.99;97010.09;6293098;28;20044;-62
2023/04/10 05:19:09;;;;;;;3.90;3.30;;;;;;;8.92;20.90;97007.66;6292493;28;20085;-61
2023/04/10 05:22:13;;;;;;;7.68;3.88;;;;;;;9.18;20.84;97014.06;6290581;28;20040;-63
2023/04/10 05:25:14;;;;;;;9.38;3.40;;;;;;;12.93;18.01;97011.88;6291992;28;20048;-62
2023/04/10 05:28:18;;;;;;;4.75;2.67;;;;;;;18.23;14.52;97024.81;6291621;28;20097;-61
2023/04/10 05:31:19;;;;;;;2.97;2.30;;;;;;;22.53;12.34;97008.53;6290844;28;20044;-61
2023/04/10 05:34:22;;;;;;;3.55;2.50;;;;;;;25.89;10.44;97014.56;6289148;28;20044;-61
2023/04/10 05:37:26;;;;;;;3.95;2.28;;;;;;;28.28;9.07;97011.44;6291031;28;20036;-62
2023/04/10 05:40:28;;;;;;;14.43;3.72;;;;;;;29.25;7.69;97007.19;6292255;28;20056;-61
2023/04/10 05:43:29;;;;;;;4.40;2.80;;;;;;;28.98;7.41;97004.50;6287810;28;20044;-62
2023/04/10 05:46:35;;;;;;;5.15;2.47;;;;;;;29.58;6.83;96998.03;6292356;28;20130;-62
2023/04/10 05:49:37;;;;;;;5.22;2.35;;;;;;;30.63;6.26;96998.34;6292149;28;20028;-62
2023/04/10 05:52:41;;;;;;;4.60;2.85;;;;;;;31.74;6.33;97001.94;6293485;28;20045;-62
2023/04/10 05:55:42;;;;;;;4.30;2.25;;;;;;;32.61;5.62;96995.97;6293056;28;20047;-61
2023/04/10 05:58:46;;;;;;;8.15;2.20;;;;;;;33.52;5.25;96990.94;6291220;28;20040;-61
2023/04/10 06:01:51;;;;;;;4.75;2.42;;;;;;;34.16;5.12;96993.47;6293351;28;20932;-61
2023/04/10 06:04:52;;;;;;;;;;;;;;;35.30;4.84;96998.50;6294403;28;20044;-61
2023/04/10 06:07:56;;;;;;;2.30;1.92;;;;;;;33.84;4.80;96983.06;6292395;28;19943;-62
2023/04/10 06:10:57;;;;;;;8.63;2.45;;;;;;;33.73;4.92;96975.75;6287488;28;20045;-63
2023/04/10 06:14:03;;;;;;;5.45;2.17;;;;;;;33.98;4.65;96978.13;6289441;28;20052;-61
2023/04/10 06:17:06;;;;;;;4.88;2.20;;;;;;;34.82;4.53;96983.63;6288735;28;20052;-62
2023/04/10 06:20:08;;;;;;;3.78;2.28;;;;;;;35.01;4.52;96980.56;6286709;28;20036;-61
2023/04/10 06:23:12;;;;;;;4.60;1.95;;;;;;;35.60;4.00;96977.25;6291066;28;20040;-61
2023/04/10 06:26:19;;;;;;;4.78;2.22;;;;;;;35.59;3.99;96965.50;6290844;28;20128;-61
2023/04/10 06:29:23;;;;;;;5.03;2.33;;;;;;;36.25;4.07;96967.22;6284486;28;20048;-63
2023/04/10 06:32:25;;;;;;;3.45;1.77;;;;;;;36.90;3.36;96974.28;6290606;28;20047;-61
2023/04/10 06:35:31;;;;;;;3.78;1.85;;;;;;;36.75;3.80;96963.22;6290815;28;20049;-61
2023/04/10 06:38:36;;;;;;;2.95;1.45;;;;;;;37.17;3.50;96963.22;6290394;28;20048;-62
2023/04/10 06:41:37;;;;;;;4.80;2.20;;;;;;;37.49;3.24;96965.81;6286968;28;20052;-62
2023/04/10 06:44:39;;;;;;;3.95;1.70;;;;;;;37.93;3.37;96957.09;6284882;28;20044;-62
2023/04/10 06:47:44;;;;;;;4.80;1.50;;;;;;;38.60;3.46;96957.97;6292202;28;20064;-62
2023/04/10 06:50:45;;;;;;;14.57;2.65;;;;;;;38.21;2.71;96943.97;6291176;28;20048;-62
2023/04/10 06:53:49;;;;;;;5.35;2.03;;;;;;;37.11;3.43;96941.50;6286652;28;20044;-66
2023/04/10 06:56:57;;;;;;;1.35;1.10;;;;;;;37.15;3.19;96937.13;6289927;28;20502;-66
2023/04/10 07:00:04;;;;;;;3.13;1.70;;;;;;;38.55;2.92;96937.91;6282835;28;20049;-67
2023/04/10 07:03:08;;;;;;;2.53;1.70;;;;;;;39.53;3.07;96930.19;6286542;28;20052;-65
2023/04/10 07:06:16;;;;;;;2.28;1.40;;;;;;;39.71;2.74;96889.03;6287043;28;20045;-66
2023/04/10 07:09:21;;;;;;;4.88;1.60;;;;;;;39.69;2.76;96917.94;6287693;28;20088;-66
2023/04/10 07:12:23;;;;;;;4.03;1.35;;;;;;;40.77;2.81;96917.94;6288428;28;20131;-65
2023/04/10 07:15:27;;;;;;;2.25;1.30;;;;;;;40.01;2.63;96906.47;6287985;28;20072;-66
2023/04/10 07:18:34;;;;;;;13.68;2.97;;;;;;;39.90;2.64;96915.94;6289194;28;20041;-66
2023/04/10 07:21:40;;;;;;;2.35;1.55;;;;;;;39.49;2.66;96903.25;6285114;28;20280;-65
2023/04/10 07:24:49;;;;;;;3.92;1.70;;;;;;;39.20;2.78;96905.81;6287882;28;20040;-65
2023/04/10 07:27:53;;;;;;;1.85;1.30;;;;;;;38.68;2.23;96887.84;6286375;28;20048;-66
2023/04/10 07:30:56;;;;;;;2.40;1.40;;;;;;;39.19;2.33;96881.34;6291717;28;20050;-65
2023/04/10 07:34:01;;;;;;;4.93;2.25;;;;;;;38.72;2.83;96882.59;6289064;28;20521;-65
2023/04/10 07:37:08;;;;;;;3.15;1.88;;;;;;;37.74;3.13;96876.38;6288674;28;20136;-66
2023/04/10 07:40:10;;;;;;;3.00;1.60;;;;;;;37.88;2.98;96874.72;6283756;28;20498;-65
2023/04/10 07:43:11;;;;;;;;;;;;;;;39.63;2.36;96875.03;6288452;28;20041;-65
2023/04/10 07:46:15;;;;;;;23.45;4.25;;;;;;;36.95;3.24;96872.84;6288140;28;19920;-64
2023/04/10 07:49:21;;;;;;;3.15;1.67;;;;;;;36.59;3.34;96871.84;6292204;28;20425;-66
2023/04/10 07:52:23;;;;;;;4.40;1.90;;;;;;;38.01;3.12;96865.13;6285510;28;20044;-63
2023/04/10 07:55:32;;;;;;;2.80;1.70;;;;;;;37.99;2.84;96869.25;6285807;28;20520;-65
2023/04/10 07:58:38;;;;;;;3.80;1.73;;;;;;;38.01;2.75;96856.88;6292698;28;20040;-66
2023/04/10 08:01:47;;;;;;;4.40;2.40;;;;;;;38.55;2.92;96855.44;6291079;28;20036;-65
2023/04/10 08:04:53;;;;;;;4.88;2.47;;;;;;;38.33;3.00;96842.00;6293947;28;20041;-66
2023/04/10 08:07:56;;;;;;;5.60;2.30;;;;;;;37.62;3.04;96848.34;6288288;28;20064;-66
2023/04/10 08:11:03;;;;;;;8.73;2.30;;;;;;;36.94;3.04;96849.22;6290754;28;20032;-74
2023/04/10 08:14:07;;;;;;;6.32;2.28;;;;;;;36.35;3.38;96841.25;6286234;28;20052;-64
2023/04/10 08:17:13;;;;;;;4.65;2.03;;;;;;;36.62;3.25;96836.50;6291639;28;20073;-65
2023/04/10 08:20:19;;;;;;;4.15;1.95;;;;;;;36.96;3.31;96827.84;6288397;28;20041;-64
2023/04/10 08:23:26;;;;;;;14.07;3.28;;;;;;;36.29;3.44;96826.69;6291744;28;20055;-65
2023/04/10 08:26:33;;;;;;;3.30;2.00;;;;;;;35.86;3.47;96817.63;6288063;28;20044;-65
2023/04/10 08:29:37;;;;;;;5.40;2.80;;;;;;;35.55;3.35;96832.94;6288757;28;20028;-64
2023/04/10 08:32:40;;;;;;;2.42;2.03;;;;;;;36.03;3.53;96814.72;6291076;28;20040;-64
2023/04/10 08:35:45;;;;;;;5.97;2.17;;;;;;;35.97;3.34;96815.78;6290496;28;20048;-65
2023/04/10 08:38:50;;;;;;;4.30;2.10;;;;;;;35.38;3.52;96811.19;6288337;28;20417;-63
2023/04/10 08:41:54;;;;;;;2.30;1.75;;;;;;;35.64;3.25;96808.69;6281298;28;20041;-65
2023/04/10 08:44:55;;;;;;;8.20;2.08;;;;;;;35.97;3.39;96802.91;6288801;28;20040;-64
2023/04/10 08:48:05;;;;;;;10.30;2.60;;;;;;;35.90;3.33;96807.00;6290468;28;20608;-64
2023/04/10 08:51:17;;;;;;;3.22;2.17;;;;;;;35.25;3.54;96806.97;6295233;28;20053;-65
2023/04/10 08:54:27;;;;;;;2.85;1.50;;;;;;;35.92;3.56;96793.84;6289604;28;20052;-64
2023/04/10 08:57:28;;;;;;;17.15;3.17;;;;;;;35.07;3.64;96783.53;6285942;28;20040;-64
2023/04/10 09:00:33;;;;;;;6.50;2.97;;;;;;;34.67;4.03;96788.53;6291175;28;20521;-64
2023/04/10 09:03:37;;;;;;;4.72;2.58;;;;;;;34.27;4.08;96784.19;6285917;28;20182;-64
2023/04/10 09:06:41;;;;;;;3.15;2.25;;;;;;;33.27;4.33;96773.06;6284582;28;20041;-75
2023/04/10 09:09:48;;;;;;;2.85;1.90;;;;;;;33.58;4.00;96770.88;6282225;28;20166;-64
2023/04/10 09:12:52;;;;;;;11.27;2.63;;;;;;;33.19;4.14;96768.00;6291749;28;20041;-64
2023/04/10 09:15:58;;;;;;;7.82;2.47;;;;;;;32.82;4.45;96792.91;6292251;28;20472;-64
2023/04/10 09:19:02;;;;;;;5.05;2.20;;;;;;;33.29;4.00;96765.44;6287161;28;20175;-63
2023/04/10 09:22:07;;;;;;;3.97;2.08;;;;;;;32.76;4.02;96766.66;6291631;28;20182;-64
2023/04/10 09:25:28;;;;;;;11.25;3.25;;;;;;;33.14;4.14;96776.09;6284785;28;20044;-65
2023/04/10 09:28:34;;;;;;;2.50;2.03;;;;;;;32.83;4.23;96759.13;6289531;28;20094;-65
2023/04/10 09:31:41;;;;;;;2.88;2.08;;;;;;;33.27;4.38;96748.50;6289519;28;20123;-63
2023/04/10 09:34:57;;;;;;;6.03;2.45;;;;;;;33.87;4.03;96747.84;6287018;28;20067;-63
2023/04/10 09:38:12;;;;;;;5.00;2.42;;;;;;;34.75;4.01;96742.44;6292306;28;20056;-64
2023/04/10 09:41:16;;;;;;;8.85;2.47;;;;;;;34.27;3.89;96740.47;6294535;28;20170;-63
2023/04/10 09:44:38;;;;;;;2.63;1.95;;;;;;;33.60;4.40;96746.88;6294465;28;20462;-62
2023/04/10 09:47:42;;;;;;;3.83;2.05;;;;;;;32.70;4.78;96732.19;6293256;28;20033;-64
2023/04/10 09:50:47;;;;;;;4.32;2.55;;;;;;;32.79;4.29;96722.56;6287659;28;20056;-62
2023/04/10 09:53:49;;;;;;;3.95;2.30;;;;;;;32.87;4.58;96739.34;6289781;28;20063;-65
2023/04/10 09:56:55;;;;;;;2.83;2.42;;;;;;;32.34;4.59;96739.63;6294366;28;20045;-65
2023/04/10 10:00:00;;;;;;;2.83;2.00;;;;;;;31.33;5.04;96724.28;6293835;28;20056;-63
2023/04/10 10:03:06;;;;;;;5.60;2.30;;;;;;;31.08;5.19;96704.63;6292668;28;20048;-64
2023/04/10 10:06:08;;;;;;;7.95;3.25;;;;;;;31.32;4.55;96706.31;6286489;28;20052;-64
2023/04/10 10:09:14;;;;;;;4.75;2.92;;;;;;;31.35;5.25;96706.91;6285956;28;20490;-64
2023/04/10 10:12:23;;;;;;;6.85;2.50;;;;;;;31.60;5.11;96695.84;6291363;28;20045;-64
2023/04/10 10:15:35;;;;;;;5.18;2.67;;;;;;;32.50;4.92;96700.78;6290767;28;20054;-63
2023/04/10 10:18:55;;;;;;;6.57;2.50;;;;;;;32.26;4.86;96699.16;6286846;28;20048;-63
2023/04/10 10:22:00;;;;;;;4.22;2.35;;;;;;;30.19;5.07;96704.38;6290844;28;20044;-63
2023/04/10 10:25:02;;;;;;;9.77;3.38;;;;;;;28.90;5.67;96693.28;6285827;28;20528;-64
2023/04/10 10:28:06;;;;;;;4.85;2.13;;;;;;;27.65;6.37;96690.91;6290364;28;20524;-64
2023/04/10 10:31:11;;;;;;;7.75;2.90;;;;;;;27.40;6.58;96681.81;6284795;28;20080;-64
2023/04/10 10:34:15;;;;;;;6.53;3.53;;;;;;;27.24;6.59;96683.94;6291192;28;20045;-63
2023/04/10 10:37:18;;;;;;;6.90;3.33;;;;;;;27.15;6.66;96679.75;6289923;28;20233;-63
2023/04/10 10:40:27;;;;;;;3.90;2.70;;;;;;;26.71;6.64;96681.19;6292520;28;20083;-62
2023/04/10 10:43:31;;;;;;;6.53;3.10;;;;;;;27.16;6.67;96675.22;6293232;28;20051;-64
2023/04/10 10:46:42;;;;;;;9.38;2.78;;;;;;;26.85;6.99;96666.66;6292854;28;20421;-64
2023/04/10 10:49:57;;;;;;;4.10;2.53;;;;;;;27.01;7.12;96683.50;6289530;28;20059;-64
2023/04/10 10:53:00;;;;;;;4.00;1.90;;;;;;;27.26;6.89;96660.25;6287685;28;20135;-62
2023/04/10 10:56:21;;;;;;;7.65;3.30;;;;;;;26.98;7.13;96670.41;6282560;28;20063;-63
2023/04/10 10:59:47;;;;;;;4.85;2.97;;;;;;;26.79;7.29;96659.41;6282287;28;20076;-63
2023/04/10 11:03:06;;;;;;;3.45;2.45;;;;;;;26.10;7.23;96676.66;6285833;28;20501;-64
2023/04/10 11:06:08;;;;;;;8.02;2.63;;;;;;;25.64;7.60;96679.09;6281710;28;20786;-62
2023/04/10 11:09:49;;;;;;;4.10;2.22;;;;;;;25.80;7.78;96676.09;6280054;28;20048;-63
2023/04/10 11:13:16;;;;;;;4.95;2.05;;;;;;;25.83;7.21;96667.63;6283947;28;20127;-65
2023/04/10 11:16:21;;;;;;;7.57;2.95;;;;;;;25.21;7.44;96671.19;6281472;28;20052;-64
2023/04/10 11:19:24;;;;;;;2.78;2.15;;;;;;;24.91;7.77;96654.34;6286018;28;20039;-63
2023/04/10 11:22:26;;;;;;;13.00;3.15;;;;;;;24.55;7.97;96656.13;6287615;28;20123;-64
2023/04/10 11:25:46;;;;;;;4.65;2.55;;;;;;;23.75;8.23;96659.75;6287050;28;20049;-65
2023/04/10 11:28:50;;;;;;;13.60;2.97;;;;;;;23.46;8.72;96671.31;6289306;28;20506;-63
2023/04/10 11:31:57;;;;;;;4.97;2.13;;;;;;;23.88;7.87;96659.91;6289756;28;20063;-64
2023/04/10 11:35:03;;;;;;;7.53;2.22;;;;;;;24.00;8.10;96644.13;6290464;28;20059;-63
2023/04/10 11:38:08;;;;;;;4.22;2.05;;;;;;;23.88;8.02;96649.16;6285247;28;20036;-62
2023/04/10 11:41:13;;;;;;;4.65;1.98;;;;;;;23.47;8.39;96654.19;6282994;28;20040;-65
2023/04/10 11:44:25;;;;;;;2.38;1.65;;;;;;;23.51;8.21;96650.09;6284998;28;20063;-63
2023/04/10 11:47:27;;;;;;;2.15;1.60;;;;;;;23.70;8.35;96652.25;6287198;28;20340;-63
2023/04/10 11:50:35;;;;;;;8.90;4.18;;;;;;;23.05;8.48;96651.09;6291499;28;20044;-64
2023/04/10 11:57:37;;;;;;;3.88;2.00;;;;;;;22.41;9.04;96650.63;6288345;28;20422;-64
2023/04/10 12:00:41;;;;;;;2.97;1.60;;;;;;;22.29;8.86;96646.69;6285490;28;20041;-65
2023/04/10 12:03:48;;;;;;;3.05;1.77;;;;;;;22.38;8.94;96656.34;6289499;28;20041;-64
2023/04/10 12:06:55;;;;;;;6.30;1.95;;;;;;;22.13;9.11;96645.75;6286033;28;20105;-64
2023/04/10 12:10:00;;;;;;;12.85;2.85;;;;;;;21.44;9.45;96653.63;6283015;28;20064;-62
2023/04/10 12:13:07;;;;;;;5.18;2.03;;;;;;;21.04;9.80;96655.38;6277316;28;20182;-63
2023/04/10 12:16:13;;;;;;;7.30;2.55;;;;;;;20.77;9.79;96659.25;6284965;28;20160;-64
2023/04/10 12:19:18;;;;;;;18.65;3.97;;;;;;;20.35;10.02;96646.03;6285194;28;20051;-63
2023/04/10 12:22:24;;;;;;;8.65;2.75;;;;;;;19.76;10.12;96647.91;6270266;28;20379;-65
2023/04/10 12:25:28;;;;;;;4.90;2.17;;;;;;;19.37;10.18;96645.75;6291016;28;20040;-65
2023/04/10 12:28:32;;;;;;;10.25;2.28;;;;;;;18.83;10.44;96649.47;6295192;28;20442;-64
2023/04/10 12:31:37;;;;;;;11.25;2.72;;;;;;;18.54;10.64;96659.50;6287533;28;20039;-64
2023/04/10 12:34:41;;;;;;;5.28;2.38;;;;;;;18.45;10.77;96655.13;6274967;28;20193;-64
2023/04/10 12:37:55;;;;;;;17.08;3.33;;;;;;;18.47;10.76;96663.81;6294579;28;20420;-63
2023/04/10 12:41:03;;;;;;;7.72;2.60;;;;;;;18.32;10.41;96666.19;6277070;28;20029;-63
2023/04/10 12:44:17;;;;;;;6.43;1.70;;;;;;;18.04;10.71;96652.09;6283359;28;20053;-64
2023/04/10 12:50:50;;;;;;;10.45;2.20;;;;;;;17.97;11.21;96675.81;6292658;28;20045;-63
2023/04/10 12:53:54;;;;;;;3.97;1.75;;;;;;;17.62;11.13;96660.59;6305940;28;20041;-64
2023/04/10 12:57:00;;;;;;;6.05;2.08;;;;;;;17.38;11.30;96656.66;6292079;28;20108;-63
2023/04/10 13:00:09;;;;;;;3.67;1.80;;;;;;;17.05;11.37;96664.19;6285292;28;20056;-63
2023/04/10 13:03:13;;;;;;;3.03;1.38;;;;;;;16.84;11.50;96658.22;6292445;28;20044;-64
2023/04/10 13:06:17;;;;;;;4.35;2.05;;;;;;;16.79;11.58;96649.88;6287725;28;20559;-64
2023/04/10 13:09:22;;;;;;;3.63;1.90;;;;;;;16.50;11.77;96666.66;6294169;28;20050;-64
2023/04/10 13:12:27;;;;;;;7.47;2.20;;;;;;;16.48;11.89;96651.84;6288906;28;20054;-64
2023/04/10 13:15:33;;;;;;;5.60;1.95;;;;;;;16.24;12.14;96647.78;6288793;28;20559;-63
2023/04/10 13:18:38;;;;;;;4.75;1.75;;;;;;;15.93;12.19;96666.47;6287413;28;20032;-60
2023/04/10 13:21:42;;;;;;;3.70;1.90;;;;;;;15.71;12.53;96659.63;6295489;28;20047;-60
2023/04/10 13:24:48;;;;;;;5.70;2.05;;;;;;;15.53;12.64;96663.03;6290209;28;20047;-59
2023/04/10 13:27:52;;;;;;;5.22;2.35;;;;;;;15.13;13.06;96667.34;6295426;28;20062;-61
2023/04/10 13:30:57;;;;;;;2.60;1.75;;;;;;;14.95;13.01;96661.00;6288536;28;20047;-59
2023/04/10 13:34:02;;;;;;;4.00;1.90;;;;;;;14.76;13.25;96656.41;6294582;28;20418;-64
2023/04/10 13:37:05;;;;;;;6.65;2.25;;;;;;;14.56;13.34;96658.94;6288812;28;20094;-63
2023/04/10 13:40:09;;;;;;;6.70;1.75;;;;;;;14.41;13.57;96656.72;6286056;28;20059;-63
2023/04/10 13:43:12;;;;;;;4.45;2.65;;;;;;;14.15;13.75;96657.06;6293769;28;20135;-63
2023/04/10 13:46:16;;;;;;;6.18;3.20;;;;;;;13.95;13.98;96660.53;6284447;28;20043;-64
2023/04/10 13:49:21;;;;;;;7.82;3.42;;;;;;;13.91;14.11;96660.78;6288421;28;20056;-64
2023/04/10 13:52:26;;;;;;;5.15;2.20;;;;;;;13.76;14.44;96669.09;6289361;28;20044;-63
2023/04/10 13:55:29;;;;;;;3.67;2.15;;;;;;;13.71;14.46;96669.50;6291242;28;20055;-64
2023/04/10 13:58:33;;;;;;;5.72;2.30;;;;;;;13.52;14.59;96658.72;6285753;28;20032;-66
2023/04/10 14:01:37;;;;;;;5.20;2.75;;;;;;;13.60;14.68;96666.88;6287275;28;20086;-66
2023/04/10 14:04:41;;;;;;;4.55;2.22;;;;;;;13.40;14.79;96677.22;6286281;28;20033;-66
2023/04/10 14:07:50;;;;;;;4.45;2.80;;;;;;;13.24;14.86;96671.44;6271700;28;20631;-73
2023/04/10 14:10:55;;;;;;;4.72;2.83;;;;;;;13.02;15.30;96670.50;6283377;28;20044;-65
2023/04/10 14:13:59;;;;;;;10.07;3.60;;;;;;;12.86;15.63;96666.53;6282380;28;20053;-63
2023/04/10 14:17:04;;;;;;;6.03;2.78;;;;;;;12.61;15.93;96668.41;6278562;28;20126;-66
2023/04/10 14:20:10;;;;;;;6.25;3.50;;;;;;;12.39;16.21;96669.16;6289192;28;20040;-61
2023/04/10 14:23:17;;;;;;;14.77;7.03;;;;;;;12.07;16.16;96677.69;6284831;28;20047;-63
2023/04/10 14:26:21;;;;;;;13.45;5.75;;;;;;;11.83;16.61;96676.81;6291731;28;20051;-68
2023/04/10 14:29:25;;;;;;;11.82;5.25;;;;;;;11.69;16.96;96680.47;6273703;28;20049;-67
2023/04/10 14:32:31;;;;;;;8.73;5.40;;;;;;;11.49;17.07;96679.25;6291480;28;20581;-68
2023/04/10 14:35:35;;;;;;;12.25;5.38;;;;;;;11.38;17.23;96687.09;6284242;28;20043;-67
2023/04/10 14:38:39;;;;;;;9.90;5.85;;;;;;;11.22;17.51;96677.66;6284525;28;20139;-67
2023/04/10 14:41:44;;;;;;;16.90;5.18;;;;;;;11.07;17.76;96684.00;6287104;28;20058;-68
2023/04/10 14:44:49;;;;;;;12.80;4.43;;;;;;;10.81;17.86;96687.56;6292540;28;20066;-69
2023/04/10 14:47:54;;;;;;;14.25;4.68;;;;;;;10.65;18.18;96680.75;6286954;28;20074;-68